createdAt,value
2022-11-30T00:01:50.152Z,35.80
2022-11-30T00:04:18.007Z,27.00
2022-11-30T00:06:47.232Z,30.27
2022-11-30T00:09:15.077Z,30.27
2022-11-30T00:11:42.950Z,31.37
2022-11-30T00:14:10.801Z,30.80
2022-11-30T00:16:38.729Z,30.40
2022-11-30T00:19:06.594Z,30.10
2022-11-30T00:21:34.437Z,29.80
2022-11-30T00:24:03.661Z,30.67
2022-11-30T00:26:31.715Z,28.00
2022-11-30T00:28:59.572Z,26.37
2022-11-30T00:31:27.438Z,32.43
2022-11-30T00:33:55.292Z,26.77
2022-11-30T00:36:23.783Z,29.10
2022-11-30T00:38:52.765Z,28.40
2022-11-30T00:41:22.143Z,28.47
2022-11-30T00:43:50.506Z,31.00
2022-11-30T00:46:18.659Z,32.20
2022-11-30T00:48:46.905Z,29.33
2022-11-30T00:51:15.172Z,30.90
2022-11-30T00:53:43.730Z,35.33
2022-11-30T00:56:12.054Z,28.67
2022-11-30T00:58:41.698Z,31.43
2022-11-30T01:01:10.035Z,26.03
2022-11-30T01:03:38.292Z,25.90
2022-11-30T01:06:07.507Z,30.97
2022-11-30T01:08:35.842Z,30.67
2022-11-30T01:11:09.568Z,26.43
2022-11-30T01:13:37.433Z,25.97
2022-11-30T01:16:12.470Z,25.60
2022-11-30T01:18:40.435Z,26.47
2022-11-30T01:21:09.191Z,27.67
2022-11-30T01:23:37.403Z,24.80
2022-11-30T01:26:05.267Z,26.20
2022-11-30T01:28:33.147Z,30.03
2022-11-30T01:31:02.600Z,27.53
2022-11-30T01:33:32.013Z,26.77
2022-11-30T01:36:01.648Z,25.50
2022-11-30T01:38:33.289Z,31.27
2022-11-30T01:41:01.167Z,28.27
2022-11-30T01:43:39.600Z,32.60
2022-11-30T01:46:18.394Z,30.03
2022-11-30T01:48:52.091Z,26.80
2022-11-30T01:51:20.151Z,30.40
2022-11-30T01:53:48.356Z,24.97
2022-11-30T01:56:17.672Z,25.23
2022-11-30T01:58:45.790Z,29.53
2022-11-30T02:01:13.701Z,27.07
2022-11-30T02:03:47.264Z,25.20
2022-11-30T02:06:16.694Z,26.27
2022-11-30T02:08:44.945Z,27.03
2022-11-30T02:11:15.542Z,26.93
2022-11-30T02:13:57.691Z,23.67
2022-11-30T02:16:31.618Z,25.93
2022-11-30T02:19:11.623Z,30.83
2022-11-30T02:21:47.152Z,27.63
2022-11-30T02:24:38.036Z,24.37
2022-11-30T02:27:19.539Z,26.73
2022-11-30T02:29:54.311Z,24.70
2022-11-30T02:32:27.013Z,28.83
2022-11-30T02:34:57.694Z,29.00
2022-11-30T02:37:26.836Z,23.97
2022-11-30T02:39:54.675Z,28.63
2022-11-30T02:42:22.816Z,30.10
2022-11-30T02:44:54.475Z,25.83
2022-11-30T02:47:28.474Z,27.23
2022-11-30T02:50:01.184Z,29.93
2022-11-30T02:52:31.069Z,28.87
2022-11-30T02:55:02.617Z,30.63
2022-11-30T02:57:30.853Z,32.93
2022-11-30T03:00:01.593Z,26.40
2022-11-30T03:02:29.473Z,30.57
2022-11-30T03:04:57.339Z,36.30
2022-11-30T03:07:25.269Z,22.83
2022-11-30T03:09:53.151Z,29.40
2022-11-30T03:12:21.038Z,23.23
2022-11-30T03:14:49.204Z,21.20
2022-11-30T03:17:18.844Z,25.77
2022-11-30T03:19:46.716Z,23.10
2022-11-30T03:22:14.592Z,22.50
2022-11-30T03:24:42.462Z,20.97
2022-11-30T03:27:10.323Z,23.27
2022-11-30T03:29:38.324Z,21.20
2022-11-30T03:32:06.756Z,21.40
2022-11-30T03:34:36.120Z,20.37
2022-11-30T03:37:04.059Z,23.97
2022-11-30T03:39:31.928Z,25.40
2022-11-30T03:41:59.779Z,26.00
2022-11-30T03:44:27.643Z,23.33
2022-11-30T03:46:55.531Z,24.40
2022-11-30T03:49:23.387Z,21.50
2022-11-30T03:51:52.601Z,19.87
2022-11-30T03:54:21.643Z,25.77
2022-11-30T03:56:49.522Z,21.37
2022-11-30T03:59:17.400Z,21.83
2022-11-30T04:01:45.303Z,20.70
2022-11-30T04:04:13.615Z,21.80
2022-11-30T04:06:41.570Z,18.20
2022-11-30T04:09:12.023Z,19.57
2022-11-30T04:11:39.883Z,20.23
2022-11-30T04:14:07.835Z,19.13
2022-11-30T04:16:35.720Z,19.77
2022-11-30T04:19:03.722Z,17.67
2022-11-30T04:21:31.717Z,21.47
2022-11-30T04:23:59.563Z,20.60
2022-11-30T04:26:28.759Z,20.70
2022-11-30T04:28:56.996Z,17.57
2022-11-30T04:31:24.898Z,18.33
2022-11-30T04:33:54.706Z,18.60
2022-11-30T04:36:22.928Z,19.20
2022-11-30T04:38:50.947Z,17.67
2022-11-30T04:41:18.801Z,20.47
2022-11-30T04:43:48.052Z,17.53
2022-11-30T04:46:16.000Z,19.70
2022-11-30T04:48:43.927Z,15.43
2022-11-30T04:51:11.778Z,14.70
2022-11-30T04:53:39.740Z,17.90
2022-11-30T04:56:08.496Z,16.20
2022-11-30T04:58:38.620Z,17.60
2022-11-30T05:01:08.624Z,14.87
2022-11-30T05:03:36.592Z,16.60
2022-11-30T05:06:05.141Z,14.60
2022-11-30T05:08:33.038Z,16.67
2022-11-30T05:11:00.930Z,16.40
2022-11-30T05:13:28.961Z,15.87
2022-11-30T05:15:56.926Z,15.17
2022-11-30T05:18:26.314Z,19.03
2022-11-30T05:20:54.479Z,16.73
2022-11-30T05:23:23.016Z,16.13
2022-11-30T05:25:51.055Z,18.10
2022-11-30T05:28:18.954Z,17.30
2022-11-30T05:30:46.853Z,17.70
2022-11-30T05:33:14.733Z,14.03
2022-11-30T05:35:44.511Z,16.40
2022-11-30T05:38:12.443Z,19.93
2022-11-30T05:40:40.300Z,19.70
2022-11-30T05:43:08.151Z,17.43
2022-11-30T05:45:36.057Z,21.10
2022-11-30T05:48:03.937Z,16.17
2022-11-30T05:50:31.827Z,16.60
2022-11-30T05:53:01.279Z,16.90
2022-11-30T05:55:31.014Z,21.83
2022-11-30T05:57:58.912Z,19.13
2022-11-30T06:00:26.905Z,16.20
2022-11-30T06:02:58.317Z,15.80
2022-11-30T06:05:26.616Z,19.80
2022-11-30T06:07:54.609Z,21.60
2022-11-30T06:10:25.284Z,18.33
2022-11-30T06:12:53.182Z,19.87
2022-11-30T06:15:21.061Z,19.80
2022-11-30T06:17:48.897Z,19.60
2022-11-30T06:20:17.112Z,18.33
2022-11-30T06:22:46.671Z,17.67
2022-11-30T06:25:14.936Z,19.50
2022-11-30T06:27:44.552Z,17.37
2022-11-30T06:30:13.668Z,16.63
2022-11-30T06:32:41.527Z,13.87
2022-11-30T06:35:09.980Z,17.13
2022-11-30T06:37:38.015Z,17.20
2022-11-30T06:40:08.187Z,16.17
2022-11-30T06:42:37.247Z,20.00
2022-11-30T06:45:07.767Z,18.13
2022-11-30T06:47:35.891Z,17.17
2022-11-30T06:50:03.923Z,16.83
2022-11-30T06:52:32.529Z,17.80
2022-11-30T06:55:00.398Z,17.80
2022-11-30T06:57:29.098Z,17.93
2022-11-30T06:59:57.475Z,14.47
2022-11-30T07:02:26.696Z,17.40
2022-11-30T07:04:54.668Z,14.97
2022-11-30T07:07:22.610Z,15.50
2022-11-30T07:09:50.957Z,14.63
2022-11-30T07:12:19.093Z,15.70
2022-11-30T07:14:47.237Z,15.00
2022-11-30T07:17:15.354Z,14.87
2022-11-30T07:19:44.561Z,12.67
2022-11-30T07:22:12.457Z,11.93
2022-11-30T07:24:57.888Z,14.73
2022-11-30T07:27:25.918Z,12.17
2022-11-30T07:29:53.819Z,14.07
2022-11-30T07:32:21.670Z,12.73
2022-11-30T07:34:50.975Z,11.23
2022-11-30T07:37:19.168Z,12.30
2022-11-30T07:39:47.004Z,15.03
2022-11-30T07:42:14.889Z,13.70
2022-11-30T07:44:42.742Z,13.57
2022-11-30T07:47:10.775Z,14.70
2022-11-30T07:49:39.727Z,14.80
2022-11-30T07:52:09.084Z,14.37
2022-11-30T07:54:36.927Z,16.30
2022-11-30T07:57:04.852Z,11.73
2022-11-30T07:59:32.720Z,15.17
2022-11-30T08:02:01.540Z,12.17
2022-11-30T08:04:29.530Z,11.70
2022-11-30T08:06:57.451Z,10.87
2022-11-30T08:09:26.713Z,13.30
2022-11-30T08:11:54.572Z,10.77
2022-11-30T08:14:22.410Z,13.53
2022-11-30T08:16:50.298Z,15.33
2022-11-30T08:19:18.187Z,16.40
2022-11-30T08:21:46.052Z,12.47
2022-11-30T08:24:14.780Z,15.13
2022-11-30T08:26:44.091Z,13.43
2022-11-30T08:29:12.203Z,15.33
2022-11-30T08:31:40.587Z,12.10
2022-11-30T08:34:11.086Z,15.40
2022-11-30T08:36:40.309Z,13.90
2022-11-30T08:39:09.728Z,14.07
2022-11-30T08:41:39.077Z,14.60
2022-11-30T08:44:08.597Z,14.33
2022-11-30T08:46:53.401Z,14.33
2022-11-30T08:52:18.456Z,13.77
2022-11-30T08:54:48.561Z,15.83
2022-11-30T08:57:17.675Z,15.03
2022-11-30T08:59:47.339Z,12.43
2022-11-30T09:02:18.243Z,14.47
2022-11-30T09:04:47.586Z,12.80
2022-11-30T09:07:15.569Z,13.23
2022-11-30T09:09:43.451Z,12.57
2022-11-30T09:12:11.332Z,13.17
2022-11-30T09:14:39.192Z,15.23
2022-11-30T09:17:08.382Z,12.17
2022-11-30T09:19:36.231Z,12.50
2022-11-30T09:22:04.096Z,15.27
2022-11-30T09:24:31.967Z,18.33
2022-11-30T09:26:59.825Z,17.87
2022-11-30T09:29:27.912Z,14.50
2022-11-30T09:31:55.805Z,13.23
2022-11-30T09:34:25.006Z,12.70
2022-11-30T09:36:52.885Z,16.47
2022-11-30T09:39:20.756Z,21.63
2022-11-30T09:42:24.426Z,18.23
2022-11-30T09:45:01.086Z,15.50
2022-11-30T09:47:39.913Z,16.97
2022-11-30T09:50:15.505Z,20.73
2022-11-30T09:52:47.424Z,14.73
2022-11-30T09:55:23.838Z,23.67
2022-11-30T09:57:54.450Z,16.90
2022-11-30T10:00:24.526Z,16.33
2022-11-30T10:02:54.888Z,18.20
2022-11-30T10:05:28.249Z,15.20
2022-11-30T10:08:17.977Z,12.80
2022-11-30T10:10:53.098Z,22.00
2022-11-30T10:13:40.264Z,16.00
2022-11-30T10:16:17.787Z,18.80
2022-11-30T10:18:57.346Z,14.93
2022-11-30T10:21:40.464Z,15.87
2022-11-30T10:24:18.110Z,18.53
2022-11-30T10:26:53.885Z,17.53
2022-11-30T10:29:28.192Z,19.40
2022-11-30T10:31:59.888Z,17.57
2022-11-30T10:34:33.555Z,17.13
2022-11-30T10:37:11.118Z,17.27
2022-11-30T10:39:44.456Z,17.03
2022-11-30T10:42:18.918Z,18.80
2022-11-30T10:44:54.732Z,14.00
2022-11-30T10:47:27.215Z,12.43
2022-11-30T10:49:55.215Z,12.00
2022-11-30T10:52:28.103Z,11.57
2022-11-30T10:55:03.675Z,15.63
2022-11-30T10:57:34.046Z,13.70
2022-11-30T11:00:06.442Z,14.17
2022-11-30T11:02:41.260Z,12.97
2022-11-30T11:05:16.493Z,12.33
2022-11-30T11:07:51.846Z,10.77
2022-11-30T11:10:22.486Z,10.20
2022-11-30T11:12:52.818Z,10.67
2022-11-30T11:15:23.825Z,13.67
2022-11-30T11:17:52.644Z,12.00
2022-11-30T11:20:33.022Z,9.77
2022-11-30T11:23:03.863Z,12.10
2022-11-30T11:25:37.281Z,11.43
2022-11-30T11:28:09.625Z,10.47
2022-11-30T11:30:38.522Z,11.83
2022-11-30T11:33:20.360Z,11.13
2022-11-30T11:35:50.477Z,12.90
2022-11-30T11:38:26.142Z,10.87
2022-11-30T11:40:57.814Z,10.43
2022-11-30T11:43:28.432Z,11.27
2022-11-30T11:45:58.841Z,11.83
2022-11-30T11:48:37.011Z,10.00
2022-11-30T11:51:08.090Z,10.73
2022-11-30T11:53:47.411Z,7.60
2022-11-30T11:56:23.840Z,6.40
2022-11-30T11:58:57.429Z,7.87
2022-11-30T12:01:44.548Z,6.40
2022-11-30T12:04:40.930Z,7.10
2022-11-30T12:07:19.180Z,7.10
2022-11-30T12:10:35.573Z,7.10
2022-11-30T12:13:00.574Z,5.30
2022-11-30T12:15:34.967Z,5.90
2022-11-30T12:18:15.108Z,6.57
2022-11-30T12:20:54.496Z,5.53
2022-11-30T12:23:49.924Z,7.23
2022-11-30T12:26:27.953Z,5.83
2022-11-30T12:29:17.139Z,5.53
2022-11-30T12:31:56.816Z,5.23
2022-11-30T12:34:38.764Z,6.53
2022-11-30T12:37:14.849Z,5.67
2022-11-30T12:39:50.797Z,5.60
2022-11-30T12:42:26.551Z,9.13
2022-11-30T12:45:01.951Z,6.60
2022-11-30T12:47:43.504Z,5.20
2022-11-30T12:50:34.317Z,6.20
2022-11-30T12:53:14.427Z,7.47
2022-11-30T12:55:49.331Z,6.30
2022-11-30T12:58:30.123Z,5.00
2022-11-30T13:01:11.101Z,5.30
2022-11-30T13:03:54.559Z,7.67
2022-11-30T13:06:27.493Z,8.07
2022-11-30T13:09:02.213Z,5.37
2022-11-30T13:11:35.935Z,5.77
2022-11-30T13:14:10.460Z,5.60
2022-11-30T13:16:39.251Z,5.30
2022-11-30T13:19:21.727Z,6.80
2022-11-30T13:21:54.925Z,4.47
2022-11-30T13:24:28.825Z,7.30
2022-11-30T13:27:01.815Z,7.50
2022-11-30T13:29:51.553Z,4.30
2022-11-30T13:32:56.028Z,5.40
2022-11-30T13:35:42.519Z,3.37
2022-11-30T13:41:09.358Z,4.07
2022-11-30T13:43:41.826Z,4.10
2022-11-30T13:46:20.117Z,4.40
2022-11-30T13:48:48.452Z,3.20
2022-11-30T13:51:36.074Z,3.27
2022-11-30T13:54:38.084Z,3.00
2022-11-30T13:57:15.839Z,3.93
2022-11-30T13:59:48.266Z,3.37
2022-11-30T14:02:55.195Z,5.10
2022-11-30T14:05:25.944Z,4.40
2022-11-30T14:08:14.496Z,4.40
2022-11-30T14:10:43.722Z,5.70
2022-11-30T14:13:32.168Z,5.40
2022-11-30T14:16:01.635Z,5.87
2022-11-30T14:18:44.908Z,4.47
2022-11-30T14:21:20.814Z,4.40
2022-11-30T14:23:55.262Z,4.97
2022-11-30T14:26:28.436Z,6.10
2022-11-30T14:29:03.226Z,5.30
2022-11-30T14:31:37.706Z,5.20
2022-11-30T14:34:15.524Z,6.93
2022-11-30T14:36:47.625Z,4.47
2022-11-30T14:39:27.565Z,6.27
2022-11-30T14:41:55.587Z,4.10
2022-11-30T14:44:23.559Z,7.00
2022-11-30T14:46:51.846Z,6.37
2022-11-30T14:49:22.879Z,4.60
2022-11-30T14:51:53.677Z,5.40
2022-11-30T14:54:47.085Z,5.57
2022-11-30T14:57:23.563Z,5.20
2022-11-30T14:59:53.685Z,5.23
2022-11-30T15:02:30.453Z,6.37
2022-11-30T15:05:00.694Z,6.07
2022-11-30T15:07:30.169Z,6.07
2022-11-30T15:10:03.585Z,5.20
2022-11-30T15:12:31.731Z,5.30
2022-11-30T15:15:04.006Z,5.50
2022-11-30T15:17:32.144Z,7.63
2022-11-30T15:20:01.413Z,6.20
2022-11-30T15:22:35.816Z,7.47
2022-11-30T15:25:03.887Z,7.67
2022-11-30T15:27:32.041Z,7.47
2022-11-30T15:30:01.772Z,8.03
2022-11-30T15:32:30.019Z,5.20
2022-11-30T15:35:00.833Z,6.93
2022-11-30T15:37:32.714Z,5.70
2022-11-30T15:40:02.992Z,7.00
2022-11-30T15:42:39.753Z,6.60
2022-11-30T15:45:18.489Z,6.00
2022-11-30T15:47:46.402Z,5.40
2022-11-30T15:50:36.024Z,5.63
2022-11-30T15:53:32.281Z,5.63
2022-11-30T15:56:03.089Z,5.07
2022-11-30T15:58:39.588Z,4.30
2022-11-30T16:01:11.429Z,7.17
2022-11-30T16:04:01.695Z,4.37
2022-11-30T16:06:31.837Z,4.90
2022-11-30T16:09:06.334Z,4.33
2022-11-30T16:11:37.907Z,4.50
2022-11-30T16:14:05.829Z,4.10
2022-11-30T16:16:34.039Z,4.10
2022-11-30T16:19:01.973Z,4.27
2022-11-30T16:21:29.845Z,3.07
2022-11-30T16:23:57.734Z,3.57
2022-11-30T16:26:49.942Z,3.50
2022-11-30T16:29:14.809Z,4.20
2022-11-30T16:31:42.824Z,4.03
2022-11-30T16:34:12.795Z,3.87
2022-11-30T16:36:40.672Z,3.27
2022-11-30T16:39:12.198Z,4.30
2022-11-30T16:41:41.566Z,5.03
2022-11-30T16:44:14.184Z,4.40
2022-11-30T16:46:42.382Z,5.53
2022-11-30T16:49:10.353Z,4.63
2022-11-30T16:51:38.460Z,4.77
2022-11-30T16:54:06.610Z,5.10
2022-11-30T16:56:34.479Z,4.67
2022-11-30T16:59:03.686Z,3.53
2022-11-30T17:01:36.116Z,4.47
2022-11-30T17:04:08.821Z,4.80
2022-11-30T17:06:36.728Z,6.00
2022-11-30T17:09:04.841Z,3.80
2022-11-30T17:11:35.980Z,3.33
2022-11-30T17:14:05.562Z,4.60
2022-11-30T17:16:33.907Z,3.97
2022-11-30T17:19:01.898Z,4.60
2022-11-30T17:21:33.643Z,3.40
2022-11-30T17:24:01.554Z,4.03
2022-11-30T17:26:30.275Z,4.53
2022-11-30T17:28:58.220Z,3.30
2022-11-30T17:31:27.537Z,4.60
2022-11-30T17:33:55.518Z,4.30
2022-11-30T17:36:23.494Z,3.50
2022-11-30T17:38:51.364Z,4.90
2022-11-30T17:41:21.872Z,3.73
2022-11-30T17:43:50.341Z,4.60
2022-11-30T17:46:19.641Z,3.47
2022-11-30T17:48:49.656Z,4.60
2022-11-30T17:51:17.632Z,6.30
2022-11-30T17:53:45.610Z,5.03
2022-11-30T17:56:15.950Z,4.57
2022-11-30T17:58:45.469Z,4.20
2022-11-30T18:01:18.411Z,4.33
2022-11-30T18:03:48.155Z,5.40
2022-11-30T18:06:16.714Z,3.73
2022-11-30T18:08:44.999Z,4.97
2022-11-30T18:11:14.535Z,6.97
2022-11-30T18:13:42.795Z,5.17
2022-11-30T18:16:13.448Z,4.93
2022-11-30T18:18:47.136Z,3.90
2022-11-30T18:21:19.012Z,5.07
2022-11-30T18:23:47.001Z,5.43
2022-11-30T18:26:16.726Z,5.50
2022-11-30T18:28:45.119Z,4.53
2022-11-30T18:31:13.223Z,4.40
2022-11-30T18:33:41.310Z,4.57
2022-11-30T18:36:10.166Z,3.57
2022-11-30T18:38:41.444Z,5.20
2022-11-30T18:41:09.528Z,5.07
2022-11-30T18:43:38.738Z,5.07
2022-11-30T18:46:08.685Z,5.37
2022-11-30T18:48:37.654Z,6.30
2022-11-30T18:51:12.500Z,4.87
2022-11-30T18:53:42.490Z,5.90
2022-11-30T18:56:13.060Z,5.53
2022-11-30T18:58:41.211Z,5.80
2022-11-30T19:01:10.094Z,6.20
2022-11-30T19:03:38.552Z,5.80
2022-11-30T19:06:07.879Z,5.53
2022-11-30T19:08:36.072Z,7.50
2022-11-30T19:11:07.073Z,6.67
2022-11-30T19:13:35.245Z,5.53
2022-11-30T19:16:04.007Z,6.27
2022-11-30T19:18:32.639Z,5.40
2022-11-30T19:21:00.852Z,6.27
2022-11-30T19:23:29.007Z,7.57
2022-11-30T19:26:01.655Z,6.23
2022-11-30T19:28:32.006Z,6.03
2022-11-30T19:31:00.759Z,5.30
2022-11-30T19:33:29.072Z,4.73
2022-11-30T19:36:01.553Z,6.00
2022-11-30T19:38:29.475Z,6.10
2022-11-30T19:40:57.388Z,6.77
2022-11-30T19:43:25.350Z,6.90
2022-11-30T19:45:54.578Z,6.07
2022-11-30T19:48:22.506Z,9.90
2022-11-30T19:50:50.346Z,8.10
2022-11-30T19:53:18.203Z,8.13
2022-11-30T19:55:46.060Z,7.80
2022-11-30T19:58:13.960Z,10.30
2022-11-30T20:00:41.845Z,6.10
2022-11-30T20:03:11.107Z,7.93
2022-11-30T20:05:39.338Z,7.33
2022-11-30T20:08:07.729Z,8.57
2022-11-30T20:10:35.649Z,10.77
2022-11-30T20:13:03.515Z,8.13
2022-11-30T20:15:31.432Z,8.27
2022-11-30T20:17:59.339Z,10.37
2022-11-30T20:20:28.574Z,8.90
2022-11-30T20:22:56.466Z,9.80
2022-11-30T20:25:24.366Z,9.07
2022-11-30T20:27:52.295Z,7.00
2022-11-30T20:30:20.362Z,8.47
2022-11-30T20:32:48.258Z,8.07
2022-11-30T20:35:16.271Z,8.13
2022-11-30T20:37:45.506Z,11.10
2022-11-30T20:40:13.758Z,8.80
2022-11-30T20:42:41.756Z,9.20
2022-11-30T20:45:09.947Z,8.23
2022-11-30T20:47:37.803Z,8.87
2022-11-30T20:50:07.049Z,9.40
2022-11-30T20:52:35.263Z,8.73
2022-11-30T20:55:04.549Z,8.00
2022-11-30T20:57:32.434Z,7.67
2022-11-30T21:00:00.291Z,6.73
2022-11-30T21:02:28.226Z,6.60
2022-11-30T21:04:56.130Z,10.50
2022-11-30T21:07:24.091Z,8.80
2022-11-30T21:09:52.316Z,8.90
2022-11-30T21:12:21.532Z,7.63
2022-11-30T21:14:49.704Z,6.73
2022-11-30T21:17:17.720Z,8.00
2022-11-30T21:19:45.602Z,7.90
2022-11-30T21:22:13.475Z,11.80
2022-11-30T21:24:41.359Z,9.93
2022-11-30T21:27:09.369Z,8.53
2022-11-30T21:29:38.587Z,6.67
2022-11-30T21:32:06.604Z,6.87
2022-11-30T21:34:34.541Z,7.70
2022-11-30T21:37:02.437Z,9.57
2022-11-30T21:39:31.055Z,8.90
2022-11-30T21:41:59.032Z,7.83
2022-11-30T21:44:26.896Z,8.53
2022-11-30T21:46:56.166Z,7.90
2022-11-30T21:49:24.438Z,6.80
2022-11-30T21:51:52.347Z,8.33
2022-11-30T21:54:20.320Z,9.10
2022-11-30T21:56:52.236Z,8.77
2022-11-30T21:59:20.371Z,9.30
2022-11-30T22:01:48.255Z,8.93
2022-11-30T22:04:17.655Z,7.80
2022-11-30T22:06:45.936Z,7.20
2022-11-30T22:09:15.775Z,8.80
2022-11-30T22:11:45.537Z,7.23
2022-11-30T22:14:15.576Z,11.13
2022-11-30T22:16:43.974Z,8.20
2022-11-30T22:19:11.913Z,6.80
2022-11-30T22:21:45.367Z,8.60
2022-11-30T22:24:16.297Z,8.10
2022-11-30T22:26:45.360Z,8.00
2022-11-30T22:29:15.373Z,10.93
2022-11-30T22:31:45.224Z,7.50
2022-11-30T22:34:13.248Z,9.03
2022-11-30T22:36:44.067Z,8.27
2022-11-30T22:39:13.856Z,9.67
2022-11-30T22:41:43.308Z,11.50
2022-11-30T22:44:13.503Z,8.53
2022-11-30T22:46:41.528Z,9.90
2022-11-30T22:49:15.884Z,9.30
2022-11-30T22:51:48.019Z,7.53
2022-11-30T22:54:16.075Z,10.23
2022-11-30T22:56:46.160Z,9.03
2022-11-30T22:59:15.199Z,8.83
2022-11-30T23:01:44.800Z,7.60
2022-11-30T23:04:14.552Z,8.20
2022-11-30T23:06:44.163Z,8.50
2022-11-30T23:09:16.130Z,10.10
2022-11-30T23:11:44.597Z,7.90
2022-11-30T23:14:13.093Z,10.27
2022-11-30T23:16:41.432Z,10.70
2022-11-30T23:19:10.114Z,7.07
2022-11-30T23:21:41.674Z,9.17
2022-11-30T23:24:14.336Z,10.30
2022-11-30T23:26:44.079Z,6.80
2022-11-30T23:29:14.014Z,10.33
2022-11-30T23:31:43.211Z,8.17
2022-11-30T23:34:13.471Z,7.40
2022-11-30T23:36:41.376Z,8.40
2022-11-30T23:39:11.783Z,13.53
2022-11-30T23:41:40.394Z,8.53
2022-11-30T23:44:10.093Z,8.13
2022-11-30T23:46:38.279Z,9.30
2022-11-30T23:49:06.466Z,9.07
2022-11-30T23:51:34.331Z,8.00
2022-11-30T23:54:02.253Z,12.13
2022-11-30T23:56:30.111Z,8.37
2022-11-30T23:58:58.161Z,8.20
